Time;durP1;ratioP1;P1;durP2;ratioP2;P2;SDS_P1;SDS_P2;PMS_P1;PMS_P2;Temp;Humidity;BMP_temperature;BMP_pressure;BME280_temperature;BME280_humidity;BME280_pressure;Samples;Min_cycle;Max_cycle;Signal;HPM_P1;HPM_P2
2023/12/29 00:00:43;;;;;;;19.08;14.18;;;;;;;8.51;100.00;100262.94;10460966;28;20083;-79
2023/12/29 00:05:43;;;;;;;14.77;13.23;;;;;;;8.60;100.00;100268.81;10458493;28;20056;-79
2023/12/29 00:10:43;;;;;;;22.30;12.15;;;;;;;8.64;100.00;100264.47;10457060;28;20037;-79
2023/12/29 00:15:46;;;;;;;14.50;10.90;;;;;;;8.68;100.00;100246.41;10457582;28;20045;-81
2023/12/29 00:20:47;;;;;;;17.05;11.35;;;;;;;8.71;100.00;100242.34;10455432;28;20040;-79
2023/12/29 00:25:48;;;;;;;15.98;10.57;;;;;;;8.36;100.00;100177.72;10456501;28;20036;-79
2023/12/29 00:30:48;;;;;;;19.52;10.13;;;;;;;8.86;100.00;100228.75;10457687;28;20040;-79
2023/12/29 00:35:49;;;;;;;13.02;9.82;;;;;;;8.91;100.00;100253.53;10455368;28;20068;-83
2023/12/29 00:40:49;;;;;;;14.10;7.60;;;;;;;8.98;100.00;100250.59;10454626;28;20033;-78
2023/12/29 00:45:50;;;;;;;17.10;7.50;;;;;;;8.93;100.00;100226.66;10455736;28;20060;-80
2023/12/29 00:50:50;;;;;;;11.85;7.47;;;;;;;9.05;100.00;100257.53;10455774;28;20041;-79
2023/12/29 00:55:51;;;;;;;12.77;6.93;;;;;;;9.04;100.00;100236.63;10456186;28;20923;-77
2023/12/29 01:00:51;;;;;;;14.63;7.80;;;;;;;9.05;100.00;100231.97;10455341;28;20044;-75
2023/12/29 01:05:52;;;;;;;15.13;7.63;;;;;;;8.93;100.00;100231.28;10471106;28;20067;-78
2023/12/29 01:10:52;;;;;;;10.43;7.70;;;;;;;8.86;100.00;100220.53;10455404;28;20251;-80
2023/12/29 01:15:52;;;;;;;11.55;9.82;;;;;;;8.93;100.00;100228.56;10431139;28;20033;-79
2023/12/29 01:20:53;;;;;;;17.02;15.55;;;;;;;8.68;100.00;100200.59;10455320;28;20420;-81
2023/12/29 01:25:53;;;;;;;18.38;16.52;;;;;;;8.53;100.00;100232.53;10454362;28;20435;-81
2023/12/29 01:30:54;;;;;;;16.70;15.40;;;;;;;8.42;100.00;100202.22;10456517;28;20497;-82
2023/12/29 01:35:54;;;;;;;18.85;17.38;;;;;;;8.36;100.00;100191.44;10456308;28;20060;-82
2023/12/29 01:40:55;;;;;;;27.30;17.73;;;;;;;8.33;100.00;100189.19;10439292;28;20138;-81
2023/12/29 01:45:55;;;;;;;27.83;16.15;;;;;;;8.23;100.00;100187.16;10457397;28;20460;-81
2023/12/29 01:50:57;;;;;;;23.65;14.15;;;;;;;8.48;100.00;100206.69;10471159;28;20060;-81
2023/12/29 01:55:57;;;;;;;17.65;15.98;;;;;;;8.49;100.00;100207.50;10464137;28;20039;-79
2023/12/29 02:00:58;;;;;;;13.02;11.82;;;;;;;8.09;100.00;100214.94;10464079;28;20033;-82
2023/12/29 02:05:58;;;;;;;19.80;18.60;;;;;;;7.70;100.00;100205.91;10461613;28;20061;-83
2023/12/29 02:10:59;;;;;;;20.75;19.33;;;;;;;7.22;100.00;100160.81;10461706;28;20037;-78
2023/12/29 02:16:04;;;;;;;27.75;25.92;;;;;;;7.15;100.00;100206.69;10461553;28;20045;-79
2023/12/29 02:21:04;;;;;;;37.85;35.60;;;;;;;6.85;100.00;100194.13;10460801;28;20049;-80
2023/12/29 02:26:08;;;;;;;41.35;39.22;;;;;;;5.78;100.00;100222.84;10463369;28;20052;-76
2023/12/29 02:31:18;;;;;;;55.33;52.50;;;;;;;4.59;100.00;100235.44;10479545;28;20045;-78
2023/12/29 02:36:19;;;;;;;49.60;45.97;;;;;;;4.64;100.00;100202.03;10461699;28;20480;-78
2023/12/29 02:41:19;;;;;;;51.55;48.00;;;;;;;4.70;100.00;100179.28;10444609;28;20037;-77
2023/12/29 02:46:20;;;;;;;52.25;47.95;;;;;;;5.07;100.00;100198.25;10453471;28;20044;-79
2023/12/29 02:51:21;;;;;;;46.95;43.63;;;;;;;5.33;100.00;100177.84;10476192;28;20029;-78
2023/12/29 02:56:22;;;;;;;48.13;45.13;;;;;;;5.60;100.00;100193.75;10437462;28;20037;-78
2023/12/29 03:01:22;;;;;;;47.95;44.20;;;;;;;5.79;100.00;100175.34;10443953;28;20033;-79
2023/12/29 03:06:23;;;;;;;49.63;45.28;;;;;;;5.95;100.00;100160.13;10426110;28;20037;-79
2023/12/29 03:11:23;;;;;;;47.38;44.55;;;;;;;6.12;100.00;100166.50;10458340;28;20488;-76
2023/12/29 03:16:24;;;;;;;48.42;45.17;;;;;;;6.25;100.00;100141.63;10439280;28;20049;-79
2023/12/29 03:21:24;;;;;;;47.20;43.88;;;;;;;6.43;100.00;100140.59;10438793;28;20056;-79
2023/12/29 03:26:25;;;;;;;42.88;40.35;;;;;;;6.72;100.00;100136.97;10473943;28;20509;-76
2023/12/29 03:31:25;;;;;;;48.20;45.25;;;;;;;7.04;100.00;100132.59;10458748;28;20047;-78
2023/12/29 03:36:26;;;;;;;48.70;45.42;;;;;;;7.25;100.00;100108.28;10451128;28;20048;-79
2023/12/29 03:41:26;;;;;;;46.47;41.90;;;;;;;7.58;100.00;100115.59;10456518;28;20045;-78
2023/12/29 03:46:26;;;;;;;46.25;42.15;;;;;;;7.63;100.00;100098.44;10427572;28;20048;-77
2023/12/29 03:51:27;;;;;;;40.42;37.35;;;;;;;7.87;100.00;100104.47;10459144;28;20040;-78
2023/12/29 03:56:27;;;;;;;36.70;33.92;;;;;;;7.95;100.00;100130.59;10461550;28;20056;-79
2023/12/29 04:01:28;;;;;;;36.78;33.05;;;;;;;8.02;100.00;100112.88;10459526;28;20037;-80
2023/12/29 04:06:29;;;;;;;34.08;30.98;;;;;;;8.20;100.00;100122.66;10457040;28;20087;-80
2023/12/29 04:11:29;;;;;;;32.75;29.52;;;;;;;8.18;100.00;100140.47;10439890;28;20029;-78
2023/12/29 04:16:30;;;;;;;30.85;25.30;;;;;;;8.17;100.00;100145.13;10422520;28;20039;-81
2023/12/29 04:21:30;;;;;;;27.50;24.58;;;;;;;8.07;100.00;100128.56;10456965;28;20032;-75
2023/12/29 04:26:36;;;;;;;27.70;23.80;;;;;;;8.02;100.00;100131.22;10441618;28;20041;-78
2023/12/29 04:31:36;;;;;;;27.67;21.92;;;;;;;8.12;100.00;100150.53;10474206;28;20033;-78
2023/12/29 04:36:36;;;;;;;25.95;20.20;;;;;;;8.10;100.00;100139.00;10458372;28;20037;-76
2023/12/29 04:41:37;;;;;;;31.52;20.85;;;;;;;8.02;100.00;100118.38;10439014;28;20033;-75
2023/12/29 04:46:37;;;;;;;23.83;17.42;;;;;;;8.05;100.00;100130.72;10447447;28;20063;-76
2023/12/29 04:51:39;;;;;;;35.58;15.18;;;;;;;8.08;100.00;100149.41;10439125;28;20059;-75
2023/12/29 04:56:39;;;;;;;22.38;13.55;;;;;;;8.03;100.00;100160.31;10457244;28;20551;-78
2023/12/29 05:01:40;;;;;;;27.27;14.82;;;;;;;7.86;100.00;100169.41;10453959;28;20546;-76
2023/12/29 05:06:40;;;;;;;21.60;15.43;;;;;;;7.82;100.00;100171.00;10438435;28;20040;-76
2023/12/29 05:11:41;;;;;;;29.25;17.42;;;;;;;7.87;100.00;100190.28;10437495;28;20048;-78
2023/12/29 05:16:42;;;;;;;20.92;16.00;;;;;;;7.94;100.00;100205.69;10455381;28;20045;-80
2023/12/29 05:21:42;;;;;;;23.65;12.88;;;;;;;7.88;100.00;100191.09;10439648;28;20650;-76
2023/12/29 05:26:43;;;;;;;26.50;11.20;;;;;;;8.03;100.00;100204.16;10460205;28;20033;-77
2023/12/29 05:31:43;;;;;;;21.70;8.93;;;;;;;8.14;100.00;100216.09;10463220;28;20045;-78
2023/12/29 05:36:44;;;;;;;22.17;8.25;;;;;;;8.13;100.00;100214.44;10445807;28;20068;-79
2023/12/29 05:41:44;;;;;;;24.13;7.45;;;;;;;8.23;100.00;100228.28;10462079;28;20069;-79
2023/12/29 05:46:48;;;;;;;21.48;6.80;;;;;;;8.19;100.00;100202.47;10427436;28;20087;-78
2023/12/29 05:51:48;;;;;;;20.08;6.05;;;;;;;8.25;100.00;100207.75;10437630;28;20056;-76
2023/12/29 05:56:49;;;;;;;19.00;5.20;;;;;;;8.19;100.00;100194.25;10480078;28;20056;-75
2023/12/29 06:01:49;;;;;;;25.27;4.80;;;;;;;8.24;100.00;100197.84;10427624;28;20029;-75
2023/12/29 06:06:50;;;;;;;17.63;4.28;;;;;;;8.24;100.00;100213.47;10462633;28;20037;-78
2023/12/29 06:11:51;;;;;;;23.75;6.35;;;;;;;8.26;100.00;100181.97;10456800;28;20052;-78
2023/12/29 06:16:52;;;;;;;18.92;4.30;;;;;;;8.25;100.00;100209.69;10441358;28;20041;-77
2023/12/29 06:21:53;;;;;;;20.15;4.53;;;;;;;8.09;100.00;100179.31;10464431;28;20055;-78
2023/12/29 06:26:53;;;;;;;25.48;5.50;;;;;;;7.96;100.00;100178.84;10462317;28;20045;-73
2023/12/29 06:31:54;;;;;;;27.92;5.82;;;;;;;8.21;100.00;100194.81;10477721;28;20049;-78
2023/12/29 06:36:54;;;;;;;23.98;4.53;;;;;;;8.23;100.00;100187.16;10444005;28;20083;-78
2023/12/29 06:41:55;;;;;;;18.55;5.05;;;;;;;8.02;100.00;100162.22;10458897;28;20068;-78
2023/12/29 06:46:55;;;;;;;18.65;6.55;;;;;;;7.90;100.00;100188.94;10461247;28;20072;-78
2023/12/29 06:51:56;;;;;;;22.10;6.45;;;;;;;7.92;100.00;100205.09;10476583;28;20037;-78
2023/12/29 06:56:56;;;;;;;22.67;8.57;;;;;;;7.88;100.00;100185.63;10443511;28;20543;-80
2023/12/29 07:01:56;;;;;;;23.65;12.15;;;;;;;7.85;100.00;100186.97;10434135;28;20037;-80
2023/12/29 07:07:00;;;;;;;28.23;10.68;;;;;;;7.80;100.00;100172.34;10442032;28;20033;-80
2023/12/29 07:12:00;;;;;;;23.75;9.05;;;;;;;7.86;100.00;100180.38;10441903;28;20041;-82
2023/12/29 07:17:01;;;;;;;24.50;10.48;;;;;;;7.88;100.00;100172.72;10442438;28;20045;-78
2023/12/29 07:22:05;;;;;;;26.10;10.57;;;;;;;7.90;100.00;100186.19;10460761;28;22222;-77
2023/12/29 07:27:07;;;;;;;26.70;9.40;;;;;;;7.89;100.00;100187.25;10443175;28;20041;-81
2023/12/29 07:32:07;;;;;;;19.33;7.22;;;;;;;8.05;100.00;100196.53;10459078;28;20037;-80
2023/12/29 07:37:08;;;;;;;32.83;10.98;;;;;;;8.00;100.00;100193.69;10456158;28;20045;-85
2023/12/29 07:42:08;;;;;;;35.13;11.98;;;;;;;7.92;100.00;100197.72;10441015;28;20052;-78
2023/12/29 07:47:11;;;;;;;40.78;13.27;;;;;;;7.86;100.00;100182.31;10442352;28;20537;-83
2023/12/29 07:52:11;;;;;;;30.48;12.90;;;;;;;7.82;100.00;100187.44;10460332;28;20120;-82
2023/12/29 07:57:12;;;;;;;38.13;15.30;;;;;;;7.74;100.00;100190.63;10441469;28;20059;-83
2023/12/29 08:02:12;;;;;;;33.50;13.90;;;;;;;7.52;100.00;100176.06;10454667;28;20040;-83
2023/12/29 08:07:13;;;;;;;31.50;14.82;;;;;;;7.74;100.00;100208.97;10438884;28;20102;-82
2023/12/29 08:12:13;;;;;;;41.30;15.65;;;;;;;7.84;100.00;100207.22;10418840;28;20066;-82
2023/12/29 08:17:14;;;;;;;41.72;12.27;;;;;;;7.95;100.00;100215.56;10421052;28;20049;-80
2023/12/29 08:22:14;;;;;;;35.05;10.88;;;;;;;7.88;100.00;100208.38;10440616;28;20048;-80
2023/12/29 08:27:22;;;;;;;42.88;11.73;;;;;;;7.94;100.00;100225.72;10439171;28;20049;-82
2023/12/29 08:32:22;;;;;;;38.90;12.25;;;;;;;7.89;100.00;100228.38;10423547;28;20067;-82
2023/12/29 08:37:23;;;;;;;30.33;10.35;;;;;;;7.96;100.00;100233.66;10452839;28;20045;-79
2023/12/29 08:42:23;;;;;;;33.45;10.60;;;;;;;8.12;100.00;100231.97;10437981;28;20060;-82
2023/12/29 08:47:24;;;;;;;31.40;10.40;;;;;;;8.20;100.00;100213.16;10423195;28;20075;-79
2023/12/29 08:52:24;;;;;;;32.28;10.10;;;;;;;8.29;100.00;100219.88;10418662;28;20045;-85
2023/12/29 08:57:25;;;;;;;28.35;9.43;;;;;;;8.23;100.00;100212.66;10452410;28;20037;-82
2023/12/29 09:02:25;;;;;;;25.73;8.13;;;;;;;8.18;100.00;100220.81;10453777;28;20294;-82
2023/12/29 09:07:28;;;;;;;24.70;9.00;;;;;;;8.28;100.00;100212.72;10454206;28;20109;-84
2023/12/29 09:12:28;;;;;;;36.70;10.07;;;;;;;8.22;100.00;100197.28;10422307;28;20056;-78
2023/12/29 09:17:29;;;;;;;24.02;6.53;;;;;;;8.23;100.00;100215.41;10420849;28;20461;-83
2023/12/29 09:22:29;;;;;;;27.55;7.03;;;;;;;8.17;100.00;100212.88;10454037;28;20462;-82
2023/12/29 09:27:30;;;;;;;16.88;7.05;;;;;;;8.15;100.00;100220.50;10438572;28;20037;-79
2023/12/29 09:32:30;;;;;;;19.27;6.43;;;;;;;8.08;100.00;100217.94;10454666;28;20041;-80
2023/12/29 09:37:31;;;;;;;25.15;5.93;;;;;;;8.31;100.00;100227.00;10470618;28;20268;-83
2023/12/29 09:42:31;;;;;;;15.23;6.70;;;;;;;8.35;100.00;100217.19;10437633;28;20071;-83
2023/12/29 09:47:32;;;;;;;22.48;5.80;;;;;;;8.41;100.00;100199.72;10423149;28;20529;-82
2023/12/29 09:52:33;;;;;;;19.55;5.43;;;;;;;8.56;100.00;100224.63;10422633;28;20041;-82
2023/12/29 09:57:34;;;;;;;12.60;5.93;;;;;;;8.56;100.00;100186.19;10437753;28;20127;-84
2023/12/29 10:02:35;;;;;;;25.38;5.57;;;;;;;8.61;100.00;100193.66;10419742;28;20037;-84
2023/12/29 10:07:37;;;;;;;14.55;5.25;;;;;;;8.56;100.00;100199.06;10414188;28;20056;-83
2023/12/29 10:12:38;;;;;;;26.88;7.38;;;;;;;8.56;100.00;100210.03;10422116;28;20071;-82
2023/12/29 10:17:41;;;;;;;28.73;6.05;;;;;;;8.55;100.00;100214.72;10445437;28;20481;-82
2023/12/29 10:22:51;;;;;;;18.48;4.78;;;;;;;8.62;100.00;100222.72;10457584;28;20041;-82
2023/12/29 10:27:51;;;;;;;18.08;5.93;;;;;;;8.55;100.00;100203.72;10462154;28;20501;-83
2023/12/29 10:32:52;;;;;;;15.98;5.22;;;;;;;8.67;100.00;100214.56;10443471;28;20049;-84
2023/12/29 10:37:52;;;;;;;22.48;4.60;;;;;;;8.66;100.00;100191.81;10442804;28;20033;-82
2023/12/29 10:42:57;;;;;;;26.33;6.65;;;;;;;8.80;100.00;100207.84;10459761;28;20049;-84
2023/12/29 10:48:01;;;;;;;15.63;4.20;;;;;;;8.86;100.00;100206.81;10475112;28;20049;-81
2023/12/29 10:53:12;;;;;;;15.93;4.78;;;;;;;8.84;100.00;100184.28;10458771;28;20037;-80
2023/12/29 10:58:19;;;;;;;22.33;3.92;;;;;;;9.02;100.00;100211.34;10459183;28;20041;-81
2023/12/29 11:03:20;;;;;;;19.40;3.30;;;;;;;8.97;100.00;100207.72;10474489;28;20041;-86
2023/12/29 11:08:20;;;;;;;14.68;5.13;;;;;;;8.97;100.00;100210.47;10475736;28;20032;-84
2023/12/29 11:13:21;;;;;;;13.82;3.70;;;;;;;8.45;100.00;100166.06;10459489;28;20043;-82
2023/12/29 11:18:22;;;;;;;14.50;3.75;;;;;;;8.33;100.00;100209.22;10440938;28;20091;-82
2023/12/29 11:23:22;;;;;;;21.48;4.63;;;;;;;8.16;100.00;100220.22;10440919;28;20037;-83
2023/12/29 11:28:22;;;;;;;15.00;5.32;;;;;;;8.09;100.00;100233.31;10473020;28;20420;-82
2023/12/29 11:33:26;;;;;;;19.38;4.78;;;;;;;8.09;100.00;100203.97;10454193;28;20323;-85
2023/12/29 11:38:49;;;;;;;21.33;4.32;;;;;;;8.45;100.00;100195.38;10438141;28;20061;-84
2023/12/29 11:43:59;;;;;;;11.88;4.25;;;;;;;8.68;100.00;100181.41;10472912;28;20037;-82
2023/12/29 11:49:04;;;;;;;11.70;3.00;;;;;;;8.87;100.00;100203.81;10423450;28;20065;-84
2023/12/29 11:54:05;;;;;;;18.00;3.28;;;;;;;8.83;100.00;100153.25;10470106;28;20057;-83
2023/12/29 11:59:24;;;;;;;15.68;3.25;;;;;;;9.29;100.00;100199.50;10456699;28;20041;-83
2023/12/29 12:04:41;;;;;;;16.58;2.63;;;;;;;9.35;100.00;100190.22;10467225;28;20037;-80
2023/12/29 12:09:41;;;;;;;13.45;4.25;;;;;;;9.08;100.00;100182.84;10436128;28;20048;-83
2023/12/29 12:14:54;;;;;;;18.00;3.75;;;;;;;8.93;100.00;100212.06;10440757;28;20033;-87
2023/12/29 12:20:06;;;;;;;15.75;2.40;;;;;;;8.68;100.00;100205.25;10456323;28;20105;-82
2023/12/29 12:25:07;;;;;;;19.77;3.05;;;;;;;8.71;100.00;100214.91;10435692;28;20044;-83
2023/12/29 12:30:09;;;;;;;10.77;3.40;;;;;;;8.68;100.00;100225.31;10471675;28;20075;-81
2023/12/29 12:35:15;;;;;;;15.93;3.45;;;;;;;8.55;100.00;100224.88;10438741;28;20029;-80
2023/12/29 12:40:26;;;;;;;13.00;3.10;;;;;;;8.66;100.00;100224.72;10437922;28;20044;-86
2023/12/29 12:45:27;;;;;;;13.38;3.33;;;;;;;8.74;100.00;100250.03;10420703;28;20545;-80
2023/12/29 12:50:28;;;;;;;21.50;4.60;;;;;;;8.59;100.00;100235.06;10439519;28;20025;-82
2023/12/29 12:55:32;;;;;;;14.05;3.30;;;;;;;8.52;100.00;100244.59;10420906;28;20029;-82
2023/12/29 13:00:32;;;;;;;10.00;3.03;;;;;;;8.44;100.00;100254.09;10455760;28;20504;-85
2023/12/29 13:05:33;;;;;;;17.15;3.22;;;;;;;8.43;100.00;100242.31;10418115;28;20048;-87
2023/12/29 13:10:33;;;;;;;14.88;5.63;;;;;;;8.44;100.00;100238.47;10438491;28;20041;-85
2023/12/29 13:15:34;;;;;;;18.58;4.18;;;;;;;8.50;100.00;100261.31;10438263;28;20045;-85
2023/12/29 13:20:44;;;;;;;12.70;4.18;;;;;;;8.37;100.00;100256.16;10438018;28;20041;-83
2023/12/29 13:25:44;;;;;;;11.27;3.67;;;;;;;8.32;100.00;100261.59;10439585;28;20053;-83
2023/12/29 13:30:45;;;;;;;16.85;4.57;;;;;;;8.18;100.00;100247.41;10421723;28;20071;-85
2023/12/29 13:35:48;;;;;;;10.20;3.42;;;;;;;8.19;100.00;100254.56;10433819;28;20037;-85
2023/12/29 13:40:52;;;;;;;18.17;4.72;;;;;;;8.27;100.00;100260.44;10455037;28;20037;-86
2023/12/29 13:45:52;;;;;;;11.27;3.03;;;;;;;8.13;100.00;100231.72;10455472;28;20496;-83
2023/12/29 13:50:53;;;;;;;14.38;2.80;;;;;;;8.15;100.00;100240.53;10460033;28;20033;-80
2023/12/29 13:55:53;;;;;;;18.80;3.35;;;;;;;8.25;100.00;100250.81;10427777;28;20048;-82
2023/12/29 14:00:56;;;;;;;12.10;2.63;;;;;;;8.23;100.00;100264.75;10445192;28;20087;-79
2023/12/29 14:06:00;;;;;;;10.07;1.92;;;;;;;8.17;100.00;100263.03;10429103;28;20033;-84
2023/12/29 14:11:00;;;;;;;21.25;3.03;;;;;;;8.09;100.00;100252.50;10460975;28;20044;-83
2023/12/29 14:16:01;;;;;;;13.43;2.17;;;;;;;8.02;100.00;100238.13;10461781;28;20505;-85
2023/12/29 14:21:01;;;;;;;21.17;2.78;;;;;;;8.04;100.00;100244.19;10445069;28;20056;-80
2023/12/29 14:26:03;;;;;;;18.48;2.92;;;;;;;8.02;100.00;100251.84;10445723;28;20100;-80
2023/12/29 14:31:03;;;;;;;9.30;2.00;;;;;;;7.93;100.00;100243.22;10460500;28;20041;-84
2023/12/29 14:36:04;;;;;;;10.07;2.42;;;;;;;7.84;100.00;100270.25;10425445;28;20048;-78
2023/12/29 14:41:05;;;;;;;8.63;2.15;;;;;;;7.74;100.00;100239.94;10460671;28;20182;-83
2023/12/29 14:46:05;;;;;;;9.38;2.88;;;;;;;7.73;100.00;100257.47;10435350;28;20037;-81
2023/12/29 14:51:06;;;;;;;20.50;3.22;;;;;;;7.61;100.00;100234.81;10462591;28;20041;-85
2023/12/29 14:56:06;;;;;;;11.40;2.28;;;;;;;7.71;100.00;100256.03;10459558;28;20065;-77
2023/12/29 15:01:07;;;;;;;22.25;4.63;;;;;;;7.67;100.00;100259.31;10433878;28;20302;-82
2023/12/29 15:06:08;;;;;;;13.07;1.85;;;;;;;7.66;100.00;100265.03;10427452;28;20041;-79
2023/12/29 15:11:08;;;;;;;13.98;2.63;;;;;;;7.63;100.00;100262.81;10476709;28;20052;-83
2023/12/29 15:16:09;;;;;;;10.10;2.03;;;;;;;7.57;100.00;100264.63;10442378;28;20446;-81
2023/12/29 15:21:10;;;;;;;14.18;2.83;;;;;;;7.52;100.00;100258.22;10457643;28;20037;-82
2023/12/29 15:26:14;;;;;;;11.70;2.75;;;;;;;7.50;100.00;100252.97;10443310;28;20464;-85
2023/12/29 15:31:15;;;;;;;13.45;2.63;;;;;;;7.49;100.00;100240.38;10440995;28;20037;-84
2023/12/29 15:36:20;;;;;;;15.48;3.45;;;;;;;7.39;100.00;100246.50;10439724;28;20044;-82
2023/12/29 15:41:21;;;;;;;12.95;2.30;;;;;;;6.67;100.00;100143.19;10456645;28;20417;-81
2023/12/29 15:46:22;;;;;;;13.77;3.05;;;;;;;7.33;100.00;100233.81;10424335;28;20041;-84
2023/12/29 15:51:22;;;;;;;14.18;2.40;;;;;;;7.33;100.00;100222.88;10424299;28;20056;-83
2023/12/29 15:56:23;;;;;;;9.57;2.50;;;;;;;7.26;100.00;100214.00;10440715;28;20037;-86
2023/12/29 16:01:26;;;;;;;17.67;4.65;;;;;;;7.35;100.00;100242.63;10439812;28;20045;-83
2023/12/29 16:06:27;;;;;;;12.15;1.92;;;;;;;7.34;100.00;100243.72;10422313;28;20063;-82
2023/12/29 16:11:29;;;;;;;13.45;3.63;;;;;;;7.47;100.00;100257.06;10438232;28;20083;-87
2023/12/29 16:16:30;;;;;;;10.90;2.60;;;;;;;7.52;100.00;100250.00;10473819;28;20049;-81
2023/12/29 16:21:35;;;;;;;17.88;3.83;;;;;;;7.53;100.00;100251.69;10439861;28;20045;-86
2023/12/29 16:26:38;;;;;;;8.93;3.37;;;;;;;7.56;100.00;100226.50;10458150;28;20041;-86
2023/12/29 16:31:38;;;;;;;17.13;2.42;;;;;;;7.14;100.00;100197.66;10436590;28;20040;-84
2023/12/29 16:36:39;;;;;;;15.73;2.72;;;;;;;7.53;100.00;100257.16;10438060;28;20072;-83
2023/12/29 16:41:39;;;;;;;13.13;4.05;;;;;;;7.44;100.00;100230.19;10454128;28;20085;-86
2023/12/29 16:46:40;;;;;;;10.82;2.38;;;;;;;7.52;100.00;100230.81;10437432;28;20048;-88
2023/12/29 16:51:41;;;;;;;12.00;1.90;;;;;;;7.48;100.00;100206.69;10435142;28;20040;-86
2023/12/29 16:56:41;;;;;;;10.55;2.17;;;;;;;7.64;100.00;100202.25;10420453;28;20045;-74
2023/12/29 17:01:42;;;;;;;10.50;2.15;;;;;;;7.64;100.00;100195.97;10420119;28;20037;-83
2023/12/29 17:06:42;;;;;;;13.07;3.38;;;;;;;7.67;100.00;100187.25;10437817;28;20071;-82
2023/12/29 17:11:44;;;;;;;17.30;3.25;;;;;;;7.63;100.00;100183.34;10454937;28;20033;-79
2023/12/29 17:16:44;;;;;;;6.88;2.33;;;;;;;7.68;100.00;100194.38;10450609;28;20041;-83
2023/12/29 17:21:45;;;;;;;25.05;13.38;;;;;;;7.57;100.00;100207.09;10453947;28;20033;-84
2023/12/29 17:26:46;;;;;;;12.38;2.33;;;;;;;7.71;100.00;100199.38;10463057;28;20095;-82
2023/12/29 17:31:47;;;;;;;14.35;4.97;;;;;;;7.62;100.00;100187.97;10442304;28;20033;-86
2023/12/29 17:36:48;;;;;;;10.23;2.83;;;;;;;7.67;100.00;100195.47;10441860;28;20041;-88
2023/12/29 17:41:48;;;;;;;14.55;2.70;;;;;;;7.50;100.00;100190.00;10459548;28;20060;-82
2023/12/29 17:46:49;;;;;;;6.65;1.83;;;;;;;7.44;100.00;100208.28;10427682;28;20032;-77
2023/12/29 17:51:50;;;;;;;7.85;3.00;;;;;;;7.43;100.00;100211.25;10462490;28;20508;-83
2023/12/29 17:56:51;;;;;;;8.07;2.10;;;;;;;6.91;100.00;100137.59;10437727;28;20037;-86
2023/12/29 18:01:52;;;;;;;6.93;2.53;;;;;;;7.40;100.00;100212.59;10461288;28;20044;-83
2023/12/29 18:06:52;;;;;;;9.13;1.50;;;;;;;7.28;100.00;100209.09;10422068;28;20052;-86
2023/12/29 18:11:53;;;;;;;3.78;1.10;;;;;;;7.34;100.00;100223.69;10427515;28;20040;-86
2023/12/29 18:16:53;;;;;;;8.88;2.17;;;;;;;7.28;100.00;100214.59;10428711;28;20048;-88
2023/12/29 18:21:54;;;;;;;5.88;2.60;;;;;;;7.29;100.00;100216.22;10455270;28;20163;-86
2023/12/29 18:26:54;;;;;;;4.57;1.10;;;;;;;7.16;100.00;100228.34;10454634;28;20048;-89
2023/12/29 18:31:55;;;;;;;2.88;1.20;;;;;;;6.99;100.00;100220.13;10427045;28;20037;-86
2023/12/29 18:36:56;;;;;;;7.68;0.95;;;;;;;6.88;100.00;100229.19;10433639;28;20041;-87
2023/12/29 18:41:59;;;;;;;6.63;1.40;;;;;;;6.85;100.00;100259.81;10441454;28;20048;-84
2023/12/29 18:46:59;;;;;;;8.10;1.38;;;;;;;6.82;100.00;100271.22;10441004;28;20045;-84
2023/12/29 18:52:00;;;;;;;3.17;1.10;;;;;;;6.77;100.00;100268.41;10419493;28;20044;-84
2023/12/29 18:57:00;;;;;;;7.30;1.25;;;;;;;6.66;100.00;100267.38;10442943;28;20049;-87
2023/12/29 19:02:01;;;;;;;6.13;1.55;;;;;;;6.67;100.00;100275.31;10459266;28;20040;-85
2023/12/29 19:07:02;;;;;;;4.07;1.13;;;;;;;6.61;100.00;100272.72;10417163;28;20039;-84
2023/12/29 19:12:02;;;;;;;7.18;1.55;;;;;;;6.51;100.00;100272.53;10441754;28;20133;-82
2023/12/29 19:17:03;;;;;;;4.50;1.67;;;;;;;6.37;100.00;100300.16;10439674;28;20056;-84
2023/12/29 19:22:04;;;;;;;6.93;1.45;;;;;;;6.23;100.00;100315.97;10440426;28;20132;-86
2023/12/29 19:27:05;;;;;;;10.40;1.95;;;;;;;6.02;100.00;100328.34;10441294;28;20585;-84
2023/12/29 19:32:05;;;;;;;7.45;1.90;;;;;;;5.98;100.00;100326.31;10421234;28;20112;-86
2023/12/29 19:37:06;;;;;;;5.00;1.35;;;;;;;5.98;100.00;100326.31;10432664;28;20108;-84
2023/12/29 19:42:07;;;;;;;2.47;1.30;;;;;;;5.92;100.00;100322.59;10441118;28;20095;-85
2023/12/29 19:47:09;;;;;;;5.55;1.77;;;;;;;5.99;100.00;100322.50;10423830;28;20045;-79
2023/12/29 19:52:10;;;;;;;2.80;1.25;;;;;;;6.09;100.00;100330.94;10423808;28;20053;-77
2023/12/29 19:57:11;;;;;;;5.75;1.17;;;;;;;6.11;100.00;100337.00;10440456;28;20120;-84
2023/12/29 20:02:12;;;;;;;4.93;1.52;;;;;;;5.97;100.00;100319.19;10421334;28;20032;-85
2023/12/29 20:07:16;;;;;;;1.77;0.95;;;;;;;6.05;100.00;100335.22;10438159;28;20374;-86
2023/12/29 20:12:18;;;;;;;8.15;1.60;;;;;;;5.99;100.00;100317.88;10453777;28;20037;-84
2023/12/29 20:17:19;;;;;;;3.20;1.30;;;;;;;6.14;100.00;100352.09;10423643;28;20507;-84
2023/12/29 20:22:21;;;;;;;5.90;1.55;;;;;;;6.09;100.00;100338.31;10418719;28;20037;-88
2023/12/29 20:27:22;;;;;;;9.65;3.08;;;;;;;6.19;100.00;100344.84;10436018;28;20041;-88
2023/12/29 20:32:23;;;;;;;3.25;1.15;;;;;;;6.03;100.00;100323.69;10425401;28;20067;-90
2023/12/29 20:37:23;;;;;;;5.75;1.10;;;;;;;6.06;100.00;100351.41;10454837;28;20289;-86
2023/12/29 20:42:24;;;;;;;5.40;1.17;;;;;;;6.04;100.00;100356.25;10458386;28;20044;-88
2023/12/29 20:47:24;;;;;;;6.75;1.83;;;;;;;5.91;100.00;100348.25;10455427;28;20036;-81
2023/12/29 20:52:25;;;;;;;5.13;1.20;;;;;;;5.90;100.00;100340.31;10438884;28;20043;-89
2023/12/29 20:57:26;;;;;;;3.25;1.25;;;;;;;5.88;100.00;100331.53;10425123;28;20074;-85
2023/12/29 21:02:27;;;;;;;9.32;1.52;;;;;;;5.91;100.00;100331.84;10412236;28;20041;-90
2023/12/29 21:07:30;;;;;;;2.67;1.38;;;;;;;5.86;100.00;100312.63;10455112;28;20041;-87
2023/12/29 21:12:30;;;;;;;4.43;1.30;;;;;;;6.01;100.00;100331.31;10438999;28;20061;-85
2023/12/29 21:17:31;;;;;;;9.02;1.83;;;;;;;6.06;100.00;100328.72;10436895;28;20037;-85
2023/12/29 21:22:33;;;;;;;5.47;1.83;;;;;;;6.12;100.00;100337.84;10425084;28;20044;-87
2023/12/29 21:27:33;;;;;;;7.55;1.38;;;;;;;6.02;100.00;100311.13;10430380;28;20614;-86
2023/12/29 21:32:37;;;;;;;7.45;1.33;;;;;;;6.08;100.00;100332.03;10470079;28;20087;-87
2023/12/29 21:37:37;;;;;;;6.57;1.52;;;;;;;5.94;100.00;100305.97;10437666;28;20440;-84
2023/12/29 21:42:38;;;;;;;2.33;1.40;;;;;;;5.88;100.00;100315.13;10425297;28;20116;-86
2023/12/29 21:47:41;;;;;;;7.80;1.77;;;;;;;5.78;100.00;100322.00;10437051;28;20041;-87
2023/12/29 21:52:41;;;;;;;8.20;1.70;;;;;;;5.75;100.00;100327.94;10452850;28;20044;-88
2023/12/29 21:57:42;;;;;;;7.95;3.03;;;;;;;5.66;100.00;100326.59;10450825;28;20068;-88
2023/12/29 22:02:43;;;;;;;3.95;1.70;;;;;;;5.58;100.00;100337.88;10431453;28;20511;-77
2023/12/29 22:07:43;;;;;;;5.80;1.50;;;;;;;5.63;100.00;100352.50;10434607;28;20314;-89
2023/12/29 22:12:44;;;;;;;5.65;2.25;;;;;;;5.67;100.00;100336.47;10454572;28;20045;-89
2023/12/29 22:17:44;;;;;;;11.07;1.80;;;;;;;5.72;100.00;100344.78;10411733;28;20040;-87
2023/12/29 22:22:45;;;;;;;6.30;1.50;;;;;;;5.93;100.00;100367.16;10460440;28;20067;-85
2023/12/29 22:27:45;;;;;;;4.75;1.45;;;;;;;5.86;100.00;100361.78;10459748;28;20043;-86
2023/12/29 22:32:46;;;;;;;5.65;1.33;;;;;;;5.94;100.00;100346.97;10410078;28;20033;-85
2023/12/29 22:37:49;;;;;;;4.22;1.35;;;;;;;5.99;100.00;100349.84;10442413;28;20053;-85
2023/12/29 22:42:50;;;;;;;3.70;1.33;;;;;;;5.93;100.00;100351.56;10443840;28;20039;-86
2023/12/29 22:47:50;;;;;;;3.03;1.10;;;;;;;5.81;100.00;100370.72;10440719;28;20052;-87